createdAt,value
2019-03-24T00:00:08.573Z,97.97
2019-03-24T00:02:35.799Z,94.07
2019-03-24T00:05:03.096Z,96.78
2019-03-24T00:07:30.326Z,91.45
2019-03-24T00:09:57.547Z,109.42
2019-03-24T00:12:24.783Z,88.25
2019-03-24T00:14:52.016Z,96.67
2019-03-24T00:17:19.251Z,84.25
2019-03-24T00:19:46.479Z,81.60
2019-03-24T00:22:13.716Z,86.47
2019-03-24T00:24:40.944Z,87.78
2019-03-24T00:27:08.175Z,89.95
2019-03-24T00:29:35.403Z,73.92
2019-03-24T00:32:02.638Z,83.33
2019-03-24T00:34:29.858Z,88.70
2019-03-24T00:36:57.091Z,86.75
2019-03-24T00:39:24.311Z,105.72
2019-03-24T00:41:51.556Z,95.22
2019-03-24T00:44:18.785Z,84.10
2019-03-24T00:46:46.012Z,87.02
2019-03-24T00:49:13.240Z,81.08
2019-03-24T00:51:40.480Z,94.77
2019-03-24T00:54:07.699Z,88.72
2019-03-24T00:56:34.933Z,98.72
2019-03-24T00:59:02.731Z,103.58
2019-03-24T01:01:30.280Z,101.53
2019-03-24T01:03:57.520Z,104.05
2019-03-24T01:06:24.762Z,105.72
2019-03-24T01:08:51.982Z,105.55
2019-03-24T01:11:19.227Z,110.50
2019-03-24T01:13:46.470Z,128.25
2019-03-24T01:16:13.731Z,113.35
2019-03-24T01:18:40.952Z,106.37
2019-03-24T01:21:08.186Z,120.90
2019-03-24T01:23:35.425Z,99.03
2019-03-24T01:26:02.655Z,110.20
2019-03-24T01:28:29.893Z,123.72
2019-03-24T01:30:57.116Z,102.05
2019-03-24T01:33:24.351Z,97.08
2019-03-24T01:35:51.581Z,101.27
2019-03-24T01:38:18.816Z,102.53
2019-03-24T01:40:46.060Z,88.50
2019-03-24T01:43:13.275Z,98.70
2019-03-24T01:45:40.502Z,114.17
2019-03-24T01:48:07.739Z,95.87
2019-03-24T01:50:34.969Z,113.30
2019-03-24T01:53:02.208Z,109.90
2019-03-24T01:55:29.438Z,103.85
2019-03-24T01:57:56.681Z,125.12
2019-03-24T02:00:23.912Z,111.08
2019-03-24T02:02:51.147Z,100.53
2019-03-24T02:05:18.383Z,109.52
2019-03-24T02:07:45.616Z,117.60
2019-03-24T02:10:13.214Z,95.62
2019-03-24T02:12:40.453Z,106.55
2019-03-24T02:15:08.047Z,126.42
2019-03-24T02:17:35.373Z,110.50
2019-03-24T02:20:02.631Z,96.65
2019-03-24T02:22:30.056Z,115.85
2019-03-24T02:24:57.346Z,107.90
2019-03-24T02:27:24.578Z,113.00
2019-03-24T02:29:51.807Z,117.50
2019-03-24T02:32:19.035Z,93.50
2019-03-24T02:34:46.260Z,118.15
2019-03-24T02:37:13.484Z,105.55
2019-03-24T02:39:40.716Z,105.37
2019-03-24T02:42:07.980Z,114.97
2019-03-24T02:44:35.199Z,107.22
2019-03-24T02:47:02.440Z,107.83
2019-03-24T02:49:29.691Z,96.12
2019-03-24T02:51:56.960Z,109.27
2019-03-24T02:54:24.249Z,129.10
2019-03-24T02:56:51.476Z,137.45
2019-03-24T02:59:18.709Z,119.93
2019-03-24T03:01:45.952Z,129.90
2019-03-24T03:04:13.255Z,121.20
2019-03-24T03:06:40.480Z,95.92
2019-03-24T03:09:07.715Z,129.53
2019-03-24T03:11:34.952Z,122.33
2019-03-24T03:14:02.196Z,118.47
2019-03-24T03:16:38.231Z,124.30
2019-03-24T03:18:58.403Z,118.20
2019-03-24T03:21:25.630Z,117.28
2019-03-24T03:23:52.867Z,104.03
2019-03-24T03:26:20.112Z,104.75
2019-03-24T03:28:47.342Z,105.72
2019-03-24T03:31:14.580Z,119.00
2019-03-24T03:33:41.805Z,116.30
2019-03-24T03:36:09.037Z,102.07
2019-03-24T03:38:36.278Z,116.08
2019-03-24T03:41:03.940Z,112.32
2019-03-24T03:43:31.202Z,103.17
2019-03-24T03:45:58.419Z,123.92
2019-03-24T03:48:25.665Z,122.45
2019-03-24T03:50:52.912Z,119.60
2019-03-24T03:53:20.140Z,123.33
2019-03-24T03:55:47.385Z,135.95
2019-03-24T03:58:14.598Z,126.97
2019-03-24T04:00:41.835Z,104.17
2019-03-24T04:03:09.059Z,126.02
2019-03-24T04:05:36.571Z,102.02
2019-03-24T04:08:03.983Z,112.40
2019-03-24T04:10:31.200Z,129.68
2019-03-24T04:12:58.422Z,96.17
2019-03-24T04:15:25.645Z,99.28
2019-03-24T04:17:52.883Z,124.40
2019-03-24T04:20:20.127Z,101.20
2019-03-24T04:22:47.361Z,128.12
2019-03-24T04:25:14.591Z,135.55
2019-03-24T04:27:41.815Z,109.97
2019-03-24T04:30:09.423Z,117.77
2019-03-24T04:32:36.655Z,107.10
2019-03-24T04:35:08.500Z,95.57
2019-03-24T04:37:35.710Z,93.17
2019-03-24T04:40:03.818Z,104.25
2019-03-24T04:42:31.038Z,135.20
2019-03-24T04:44:58.277Z,120.00
2019-03-24T04:47:25.498Z,102.02
2019-03-24T04:49:52.727Z,97.85
2019-03-24T04:52:19.963Z,108.87
2019-03-24T04:54:47.457Z,132.97
2019-03-24T04:57:14.741Z,119.80
2019-03-24T04:59:42.138Z,113.25
2019-03-24T05:02:09.441Z,107.10
2019-03-24T05:04:36.746Z,105.58
2019-03-24T05:07:04.135Z,90.80
2019-03-24T05:09:31.371Z,118.40
2019-03-24T05:11:58.623Z,113.57
2019-03-24T05:14:25.855Z,105.55
2019-03-24T05:16:53.100Z,100.60
2019-03-24T05:19:20.331Z,120.57
2019-03-24T05:21:47.565Z,85.28
2019-03-24T05:24:14.789Z,107.35
2019-03-24T05:26:42.027Z,81.10
2019-03-24T05:29:09.246Z,102.32
2019-03-24T05:31:36.527Z,112.42
2019-03-24T05:34:03.759Z,108.37
2019-03-24T05:36:30.987Z,104.17
2019-03-24T05:38:58.220Z,115.50
2019-03-24T05:41:25.519Z,129.07
2019-03-24T05:43:52.744Z,119.80
2019-03-24T05:46:20.103Z,130.67
2019-03-24T05:48:47.322Z,128.07
2019-03-24T05:51:14.567Z,117.62
2019-03-24T05:53:41.801Z,114.57
2019-03-24T05:56:09.190Z,125.60
2019-03-24T05:58:36.443Z,133.03
2019-03-24T06:01:03.754Z,129.12
2019-03-24T06:03:30.974Z,147.22
2019-03-24T06:05:58.229Z,116.45
2019-03-24T06:08:25.467Z,109.42
2019-03-24T06:10:52.711Z,119.00
2019-03-24T06:13:19.932Z,107.72
2019-03-24T06:15:47.166Z,100.85
2019-03-24T06:18:14.392Z,116.90
2019-03-24T06:20:41.633Z,108.92
2019-03-24T06:23:08.857Z,143.13
2019-03-24T06:25:36.203Z,97.08
2019-03-24T06:28:03.467Z,121.75
2019-03-24T06:30:30.706Z,120.40
2019-03-24T06:32:57.936Z,114.35
2019-03-24T06:35:25.184Z,108.12
2019-03-24T06:37:52.418Z,117.93
2019-03-24T06:40:19.877Z,122.10
2019-03-24T06:42:47.356Z,111.32
2019-03-24T06:45:14.643Z,102.97
2019-03-24T06:47:41.879Z,111.62
2019-03-24T06:50:09.333Z,126.85
2019-03-24T06:52:36.571Z,124.90
2019-03-24T06:55:04.371Z,90.15
2019-03-24T06:57:31.609Z,127.72
2019-03-24T06:59:58.838Z,112.12
2019-03-24T07:02:26.062Z,113.20
2019-03-24T07:04:53.297Z,99.05
2019-03-24T07:07:20.540Z,100.15
2019-03-24T07:09:47.805Z,121.15
2019-03-24T07:12:15.059Z,131.82
2019-03-24T07:14:42.311Z,116.80
2019-03-24T07:17:09.566Z,126.42
2019-03-24T07:19:36.806Z,121.28
2019-03-24T07:22:04.044Z,136.00
2019-03-24T07:24:31.343Z,122.87
2019-03-24T07:26:58.586Z,122.02
2019-03-24T07:29:25.807Z,131.37
2019-03-24T07:31:53.047Z,104.70
2019-03-24T07:34:20.295Z,127.87
2019-03-24T07:36:47.532Z,118.70
2019-03-24T07:39:17.365Z,93.90
2019-03-24T07:41:44.611Z,117.03
2019-03-24T07:44:11.856Z,114.72
2019-03-24T10:02:55.331Z,128.20
2019-03-24T10:05:22.576Z,107.93
2019-03-24T10:07:49.810Z,112.07
2019-03-24T10:10:17.093Z,109.53
2019-03-24T10:12:44.312Z,119.63
2019-03-24T10:15:11.538Z,118.63
2019-03-24T10:17:38.774Z,122.93
2019-03-24T10:20:06.186Z,104.60
2019-03-24T10:22:33.427Z,100.87
2019-03-24T10:25:00.658Z,100.07
2019-03-24T10:27:27.895Z,107.70
2019-03-24T10:29:55.134Z,110.00
2019-03-24T10:32:22.356Z,102.43
2019-03-24T10:34:49.613Z,104.30
2019-03-24T10:37:16.836Z,111.60
2019-03-24T10:39:44.091Z,104.07
2019-03-24T10:42:12.960Z,113.40
2019-03-24T10:44:40.486Z,105.70
2019-03-24T10:47:07.724Z,95.10
2019-03-24T10:49:35.603Z,107.03
2019-03-24T10:52:02.868Z,105.50
2019-03-24T10:54:30.096Z,95.97
2019-03-24T10:56:57.323Z,94.50
2019-03-24T10:59:24.565Z,106.43
2019-03-24T11:01:51.796Z,97.10
2019-03-24T11:04:19.038Z,109.90
2019-03-24T11:06:51.278Z,93.20
2019-03-24T11:09:18.496Z,107.57
2019-03-24T11:11:45.716Z,108.97
2019-03-24T11:14:12.977Z,105.83
2019-03-24T11:16:40.247Z,115.97
2019-03-24T11:19:07.683Z,108.10
2019-03-24T11:21:38.268Z,103.07
2019-03-24T11:24:08.289Z,108.60
2019-03-24T11:26:35.698Z,114.90
2019-03-24T11:29:03.088Z,128.20
2019-03-24T11:31:33.615Z,104.90
2019-03-24T11:34:00.919Z,98.87
2019-03-24T11:36:28.347Z,95.07
2019-03-24T11:38:59.108Z,115.13
2019-03-24T11:41:26.450Z,111.17
2019-03-24T11:43:53.874Z,108.00
2019-03-24T11:46:21.126Z,99.57
2019-03-24T11:48:48.328Z,94.53
2019-03-24T11:51:15.832Z,96.37
2019-03-24T11:53:43.111Z,88.70
2019-03-24T11:56:10.351Z,95.23
2019-03-24T11:58:37.626Z,79.70
2019-03-24T12:01:05.144Z,85.70
2019-03-24T12:03:33.979Z,92.17
2019-03-24T12:06:01.337Z,97.57
2019-03-24T12:08:33.495Z,76.27
2019-03-24T12:11:01.132Z,87.63
2019-03-24T12:13:28.468Z,83.97
2019-03-24T12:15:55.763Z,84.93
2019-03-24T12:18:23.025Z,93.80
2019-03-24T12:20:50.270Z,85.10
2019-03-24T12:23:17.492Z,86.00
2019-03-24T12:25:44.739Z,91.43
2019-03-24T12:28:12.015Z,105.57
2019-03-24T12:30:39.265Z,94.23
2019-03-24T12:33:06.491Z,97.50
2019-03-24T12:35:33.740Z,98.57
2019-03-24T12:38:01.002Z,95.00
2019-03-24T12:40:28.296Z,90.43
2019-03-24T12:42:55.605Z,80.80
2019-03-24T12:45:22.858Z,84.87
2019-03-24T12:47:50.118Z,95.40
2019-03-24T12:50:18.377Z,81.40
2019-03-24T12:52:45.610Z,90.20
2019-03-24T12:55:12.996Z,79.17
2019-03-24T12:57:40.342Z,89.17
2019-03-24T13:00:08.543Z,90.53
2019-03-24T13:02:35.788Z,90.20
2019-03-24T13:05:04.186Z,111.23
2019-03-24T13:07:31.432Z,95.80
2019-03-24T13:09:58.653Z,92.33
2019-03-24T13:12:25.910Z,82.90
2019-03-24T13:14:53.147Z,86.23
2019-03-24T13:17:20.395Z,87.50
2019-03-24T13:19:47.640Z,90.17
2019-03-24T13:22:14.867Z,83.83
2019-03-24T13:24:42.276Z,86.00
2019-03-24T13:27:09.522Z,83.77
2019-03-24T13:29:36.786Z,73.77
2019-03-24T13:32:04.027Z,86.77
2019-03-24T13:34:31.320Z,92.37
2019-03-24T13:36:58.604Z,83.13
2019-03-24T13:39:25.951Z,83.63
2019-03-24T13:41:53.169Z,88.97
2019-03-24T13:44:20.420Z,86.23
2019-03-24T13:46:47.647Z,79.57
2019-03-24T13:49:14.874Z,85.47
2019-03-24T13:51:42.165Z,87.47
2019-03-24T13:54:09.393Z,103.50
2019-03-24T13:56:36.674Z,84.70
2019-03-24T13:59:03.979Z,95.87
2019-03-24T14:01:31.211Z,77.97
2019-03-24T14:03:58.433Z,87.03
2019-03-24T14:06:25.658Z,88.47
2019-03-24T14:08:52.893Z,95.83
2019-03-24T14:11:20.445Z,78.90
2019-03-24T14:13:47.684Z,83.90
2019-03-24T14:16:14.908Z,90.60
2019-03-24T14:18:42.135Z,92.70
2019-03-24T14:21:09.379Z,88.60
2019-03-24T14:23:36.613Z,88.97
2019-03-24T14:26:03.827Z,85.67
2019-03-24T14:28:31.087Z,83.23
2019-03-24T14:30:58.456Z,95.73
2019-03-24T14:33:25.715Z,78.33
2019-03-24T14:35:52.956Z,72.40
2019-03-24T14:38:23.025Z,89.60
2019-03-24T14:40:50.267Z,75.53
2019-03-24T14:43:17.502Z,99.10
2019-03-24T14:45:44.724Z,91.70
2019-03-24T14:48:16.032Z,96.23
2019-03-24T14:50:53.619Z,93.23
2019-03-24T14:53:12.231Z,83.57
2019-03-24T14:55:39.447Z,89.17
2019-03-24T14:58:06.726Z,77.00
2019-03-24T15:00:35.540Z,86.10
2019-03-24T15:03:02.834Z,90.63
2019-03-24T15:05:30.055Z,76.70
2019-03-24T15:08:23.689Z,84.97
2019-03-24T15:17:21.557Z,70.93
2019-03-24T17:18:44.831Z,77.57
2019-03-24T17:28:12.600Z,69.00
2019-03-24T18:01:49.888Z,80.72
2019-03-24T18:13:47.035Z,89.03
2019-03-24T19:59:12.085Z,62.90
2019-03-24T20:01:39.345Z,57.70
2019-03-24T20:04:06.574Z,60.33
2019-03-24T20:06:33.843Z,57.40
2019-03-24T20:09:01.116Z,59.70
2019-03-24T20:11:28.400Z,57.60
2019-03-24T20:13:55.687Z,54.83
2019-03-24T20:16:23.017Z,68.13
2019-03-24T20:18:50.277Z,53.03
2019-03-24T20:21:17.627Z,67.77
2019-03-24T20:23:45.293Z,60.73
2019-03-24T20:26:12.579Z,64.50
2019-03-24T20:28:39.871Z,62.20
2019-03-24T20:31:07.168Z,65.80
2019-03-24T20:33:34.395Z,58.33
2019-03-24T20:36:01.623Z,58.50
2019-03-24T20:38:28.865Z,53.87
2019-03-24T20:40:56.082Z,60.70
2019-03-24T20:43:23.319Z,64.50
2019-03-24T20:45:50.539Z,55.37
2019-03-24T20:48:17.762Z,54.53
2019-03-24T20:50:45.069Z,69.00
2019-03-24T20:53:17.962Z,64.30
2019-03-24T20:55:41.262Z,57.27
2019-03-24T20:58:08.487Z,61.77
2019-03-24T21:00:36.657Z,64.50
2019-03-24T21:03:04.752Z,61.30
2019-03-24T21:05:31.981Z,58.93
2019-03-24T21:07:59.207Z,59.03
2019-03-24T21:10:26.431Z,48.73
2019-03-24T21:12:54.538Z,52.80
2019-03-24T21:15:21.826Z,59.73
2019-03-24T21:17:49.059Z,52.10
2019-03-24T21:20:16.291Z,60.23
2019-03-24T21:22:43.520Z,54.80
2019-03-24T21:25:10.811Z,50.73
2019-03-24T21:27:38.052Z,51.57
2019-03-24T21:30:08.511Z,58.20
2019-03-24T21:32:35.745Z,52.97
2019-03-24T21:35:03.231Z,60.97
2019-03-24T21:37:30.467Z,51.63
2019-03-24T21:39:57.682Z,51.90
2019-03-24T21:42:24.929Z,57.97
2019-03-24T21:44:52.147Z,52.90
2019-03-24T21:47:19.372Z,51.90
2019-03-24T21:49:46.592Z,44.57
2019-03-24T21:52:13.819Z,41.60
2019-03-24T21:54:41.039Z,52.83
2019-03-24T21:57:08.287Z,40.50
2019-03-24T21:59:35.513Z,36.83
2019-03-24T22:02:02.917Z,37.83
2019-03-24T22:04:30.218Z,36.87
2019-03-24T22:06:57.487Z,29.27
2019-03-24T22:09:24.716Z,35.10
2019-03-24T22:11:51.990Z,33.27
2019-03-24T22:14:19.211Z,37.97
2019-03-24T22:16:46.440Z,29.60
2019-03-24T22:19:13.673Z,30.13
2019-03-24T22:21:40.897Z,40.33
2019-03-24T22:24:08.135Z,30.80
2019-03-24T22:26:35.356Z,38.07
2019-03-24T22:29:02.589Z,44.20
2019-03-24T22:31:29.811Z,44.80
2019-03-24T22:33:57.062Z,33.53
2019-03-24T22:36:24.327Z,39.23
2019-03-24T22:38:51.591Z,38.27
2019-03-24T22:41:18.811Z,40.30
2019-03-24T22:43:46.054Z,42.55
2019-03-24T22:46:13.275Z,38.30
2019-03-24T22:48:40.512Z,46.75
2019-03-24T22:51:07.747Z,49.63
2019-03-24T22:53:34.987Z,33.73
2019-03-24T22:56:02.233Z,45.15
2019-03-24T22:58:29.471Z,36.80
2019-03-24T23:00:56.698Z,43.20
2019-03-24T23:03:25.319Z,37.90
2019-03-24T23:05:52.791Z,47.03
2019-03-24T23:08:20.039Z,35.15
2019-03-24T23:10:47.272Z,47.30
2019-03-24T23:13:14.519Z,34.10
2019-03-24T23:15:41.755Z,45.50
2019-03-24T23:18:09.086Z,37.35
2019-03-24T23:20:36.408Z,38.28
2019-03-24T23:23:03.701Z,32.95
2019-03-24T23:25:31.006Z,45.33
2019-03-24T23:27:58.231Z,43.75
2019-03-24T23:30:25.465Z,34.43
2019-03-24T23:32:52.761Z,42.58
2019-03-24T23:35:19.999Z,32.25
2019-03-24T23:37:47.228Z,36.73
2019-03-24T23:40:14.610Z,40.55
2019-03-24T23:42:41.834Z,38.05
2019-03-24T23:45:09.136Z,39.25
2019-03-24T23:47:36.367Z,34.15
2019-03-24T23:50:04.771Z,31.17
2019-03-24T23:52:32.006Z,30.62
2019-03-24T23:54:59.241Z,40.45
2019-03-24T23:57:26.471Z,36.98
2019-03-24T23:59:53.705Z,39.78
